Time;durP1;ratioP1;P1;durP2;ratioP2;P2;SDS_P1;SDS_P2;PMS_P1;PMS_P2;Temp;Humidity;BMP_temperature;BMP_pressure;BME280_temperature;BME280_humidity;BME280_pressure;Samples;Min_cycle;Max_cycle;Signal;HPM_P1;HPM_P2
2021/09/22 00:01:09;;;;;;;0.00;0.00;;;9.90;76.20;;;;;;5096038;28;20028;-77
2021/09/22 00:03:35;;;;;;;0.00;0.00;;;9.90;76.10;;;;;;5096049;28;20128;-75
2021/09/22 00:06:00;;;;;;;0.00;0.00;;;10.00;76.20;;;;;;5095979;28;20027;-75
2021/09/22 00:08:26;;;;;;;0.00;0.00;;;9.90;76.10;;;;;;5096274;28;20024;-76
2021/09/22 00:10:52;;;;;;;0.00;0.00;;;9.90;76.20;;;;;;5096114;28;20429;-75
2021/09/22 00:13:18;;;;;;;0.00;0.00;;;9.90;76.20;;;;;;5096017;28;20480;-74
2021/09/22 00:15:43;;;;;;;0.00;0.00;;;9.90;76.30;;;;;;5095595;28;20452;-75
2021/09/22 00:18:09;;;;;;;0.00;0.00;;;9.90;76.30;;;;;;5095721;28;20452;-75
2021/09/22 00:20:35;;;;;;;0.00;0.00;;;9.90;76.30;;;;;;5096191;28;20031;-75
2021/09/22 00:23:01;;;;;;;0.00;0.00;;;9.90;76.30;;;;;;5095804;28;20131;-75
2021/09/22 00:25:29;;;;;;;0.00;0.00;;;9.90;76.30;;;;;;5077790;28;20028;-76
2021/09/22 00:27:55;;;;;;;0.00;0.00;;;9.90;76.30;;;;;;5077634;28;20031;-75
2021/09/22 00:30:21;;;;;;;0.00;0.00;;;9.80;76.30;;;;;;5095408;28;20024;-75
2021/09/22 00:32:47;;;;;;;0.00;0.00;;;9.80;76.40;;;;;;5095325;28;20488;-76
2021/09/22 00:35:13;;;;;;;0.00;0.00;;;9.80;76.50;;;;;;5095784;28;20112;-75
2021/09/22 00:37:40;;;;;;;0.00;0.00;;;9.80;76.50;;;;;;5095611;28;20035;-75
2021/09/22 00:40:06;;;;;;;0.00;0.00;;;9.80;76.50;;;;;;5095956;28;20068;-76
2021/09/22 00:42:33;;;;;;;0.00;0.00;;;9.80;76.50;;;;;;5095739;28;20036;-76
2021/09/22 00:45:03;;;;;;;0.00;0.00;;;9.80;76.50;;;;;;5095656;28;20036;-75
2021/09/22 00:47:29;;;;;;;0.00;0.00;;;9.80;76.50;;;;;;5077249;28;20081;-75
2021/09/22 00:49:55;;;;;;;0.00;0.00;;;9.80;76.50;;;;;;5095042;28;20039;-75
2021/09/22 00:52:21;;;;;;;0.00;0.00;;;9.80;76.60;;;;;;5095137;28;20032;-75
2021/09/22 00:54:47;;;;;;;0.00;0.00;;;9.80;76.70;;;;;;5095284;28;20059;-76
2021/09/22 00:57:15;;;;;;;0.00;0.00;;;9.80;76.70;;;;;;5077100;28;20024;-76
2021/09/22 00:59:42;;;;;;;0.00;0.00;;;9.80;76.70;;;;;;5095223;28;20103;-77
2021/09/22 01:02:08;;;;;;;0.00;0.00;;;9.80;76.70;;;;;;5095068;28;20073;-75
2021/09/22 01:04:35;;;;;;;0.05;0.00;;;9.80;76.70;;;;;;5095242;28;20028;-76
2021/09/22 01:07:02;;;;;;;0.00;0.00;;;9.80;76.70;;;;;;5095315;28;20368;-76
2021/09/22 01:09:28;;;;;;;0.00;0.00;;;9.80;76.70;;;;;;5095120;28;20020;-76
2021/09/22 01:11:54;;;;;;;0.00;0.00;;;9.80;76.80;;;;;;5095203;28;20027;-75
2021/09/22 01:14:23;;;;;;;0.00;0.00;;;9.80;76.70;;;;;;5094555;28;20027;-75
2021/09/22 01:16:50;;;;;;;0.00;0.00;;;9.80;76.70;;;;;;5076920;28;20483;-74
2021/09/22 01:19:16;;;;;;;0.00;0.00;;;9.80;76.70;;;;;;5076717;28;20112;-75
2021/09/22 01:21:47;;;;;;;0.00;0.00;;;9.80;76.80;;;;;;5095287;28;20371;-76
2021/09/22 01:24:13;;;;;;;0.00;0.00;;;9.80;76.80;;;;;;5094124;28;20044;-76
2021/09/22 01:26:39;;;;;;;0.00;0.00;;;9.80;76.70;;;;;;5094377;28;20528;-76
2021/09/22 01:29:05;;;;;;;0.00;0.00;;;9.80;76.70;;;;;;5075675;28;20027;-76
2021/09/22 01:31:37;;;;;;;0.00;0.00;;;9.80;76.60;;;;;;5094329;28;20028;-75
2021/09/22 01:34:04;;;;;;;0.00;0.00;;;9.90;76.70;;;;;;5094810;28;20104;-75
2021/09/22 01:36:30;;;;;;;0.00;0.00;;;9.80;76.60;;;;;;5076339;28;20141;-76
2021/09/22 01:38:56;;;;;;;0.00;0.00;;;9.80;76.70;;;;;;5094023;28;20531;-76
2021/09/22 01:41:22;;;;;;;0.00;0.00;;;9.90;76.70;;;;;;5094693;28;20448;-77
2021/09/22 01:43:48;;;;;;;0.00;0.00;;;9.80;76.60;;;;;;5093913;28;20032;-75
2021/09/22 01:46:14;;;;;;;0.00;0.00;;;9.90;76.70;;;;;;5094379;28;20046;-75
2021/09/22 01:48:40;;;;;;;0.00;0.00;;;9.80;76.60;;;;;;5094431;28;20028;-77
2021/09/22 01:51:08;;;;;;;0.00;0.00;;;9.80;76.70;;;;;;5076157;28;20038;-75
2021/09/22 01:53:34;;;;;;;0.00;0.00;;;9.80;76.80;;;;;;5094046;28;20503;-75
2021/09/22 01:56:01;;;;;;;0.00;0.00;;;9.80;76.70;;;;;;5094137;28;20020;-75
2021/09/22 01:58:28;;;;;;;0.00;0.00;;;9.80;76.80;;;;;;5094019;28;20028;-75
2021/09/22 02:01:03;;;;;;;0.00;0.00;;;9.80;76.80;;;;;;5093745;28;20042;-75
2021/09/22 02:03:29;;;;;;;0.00;0.00;;;9.70;77.50;;;;;;5092583;28;20086;-75
2021/09/22 02:05:55;;;;;;;0.00;0.00;;;9.80;77.10;;;;;;5093860;28;20034;-75
2021/09/22 02:08:21;;;;;;;0.00;0.00;;;9.70;76.90;;;;;;5094062;28;20032;-75
2021/09/22 02:10:47;;;;;;;0.00;0.00;;;9.70;77.10;;;;;;5093942;28;20020;-76
2021/09/22 02:13:13;;;;;;;0.00;0.00;;;9.70;77.10;;;;;;5094123;28;20467;-75
2021/09/22 02:15:39;;;;;;;0.00;0.00;;;9.70;77.20;;;;;;5094164;28;20034;-76
2021/09/22 02:18:05;;;;;;;0.00;0.00;;;9.70;77.20;;;;;;5093596;28;20162;-75
2021/09/22 02:20:30;;;;;;;0.00;0.00;;;9.70;77.10;;;;;;5094370;28;20471;-76
2021/09/22 02:22:56;;;;;;;0.00;0.00;;;9.70;77.30;;;;;;5093524;28;20052;-74
2021/09/22 02:25:22;;;;;;;0.00;0.00;;;9.70;77.40;;;;;;5093661;28;20028;-76
2021/09/22 02:27:48;;;;;;;0.00;0.00;;;9.70;77.30;;;;;;5093694;28;20077;-74
2021/09/22 02:30:20;;;;;;;0.00;0.00;;;9.80;77.40;;;;;;5093442;28;20035;-75
2021/09/22 02:32:47;;;;;;;0.00;0.00;;;9.70;77.20;;;;;;5075635;28;20563;-75
2021/09/22 02:35:13;;;;;;;0.00;0.00;;;9.70;77.20;;;;;;5094216;28;20046;-75
2021/09/22 02:37:40;;;;;;;0.00;0.00;;;9.80;77.10;;;;;;5093476;28;20028;-74
2021/09/22 02:40:09;;;;;;;0.00;0.00;;;9.70;77.00;;;;;;5096628;28;20434;-75
2021/09/22 02:42:35;;;;;;;0.00;0.00;;;9.70;77.20;;;;;;5096609;28;20089;-75
2021/09/22 02:45:01;;;;;;;0.00;0.00;;;9.70;77.10;;;;;;5097656;28;20110;-74
2021/09/22 02:47:27;;;;;;;0.00;0.00;;;9.70;77.10;;;;;;5097746;28;20581;-75
2021/09/22 02:49:53;;;;;;;0.00;0.00;;;9.70;77.20;;;;;;5058937;28;20025;-76
2021/09/22 02:52:19;;;;;;;0.00;0.00;;;9.70;77.10;;;;;;5049158;28;20032;-75
2021/09/22 02:54:45;;;;;;;0.00;0.00;;;9.70;77.20;;;;;;5068445;28;20028;-78
2021/09/22 02:57:12;;;;;;;0.00;0.00;;;9.70;77.20;;;;;;5070989;28;20017;-76
2021/09/22 02:59:38;;;;;;;0.00;0.00;;;9.70;77.10;;;;;;5065657;28;20020;-76
2021/09/22 03:02:04;;;;;;;0.00;0.00;;;9.70;76.90;;;;;;5066878;28;20023;-77
2021/09/22 03:04:30;;;;;;;0.00;0.00;;;9.70;76.90;;;;;;5066050;28;20037;-76
2021/09/22 03:06:56;;;;;;;0.00;0.00;;;9.70;77.00;;;;;;5065292;28;20027;-76
2021/09/22 03:09:24;;;;;;;0.00;0.00;;;9.70;77.10;;;;;;5064147;28;20027;-75
2021/09/22 03:11:50;;;;;;;0.00;0.00;;;9.70;77.20;;;;;;5066485;28;20032;-76
2021/09/22 03:14:16;;;;;;;0.00;0.00;;;9.70;77.10;;;;;;5064240;28;20099;-75
2021/09/22 03:16:43;;;;;;;0.00;0.00;;;9.70;77.00;;;;;;5066178;28;20025;-74
2021/09/22 03:19:09;;;;;;;0.00;0.00;;;9.70;77.00;;;;;;5065141;28;20020;-75
2021/09/22 03:21:35;;;;;;;0.00;0.00;;;9.70;77.00;;;;;;5064639;28;20028;-74
2021/09/22 03:24:00;;;;;;;0.00;0.00;;;9.60;77.10;;;;;;5066974;28;20041;-76
2021/09/22 03:26:27;;;;;;;0.00;0.00;;;9.60;77.00;;;;;;5064509;28;20043;-75
2021/09/22 03:28:53;;;;;;;0.00;0.00;;;9.60;77.00;;;;;;5047131;28;20075;-75
2021/09/22 03:31:20;;;;;;;0.00;0.00;;;9.60;77.20;;;;;;5066704;28;20052;-77
2021/09/22 03:33:47;;;;;;;0.00;0.00;;;9.60;77.20;;;;;;5066896;28;20029;-76
2021/09/22 03:36:13;;;;;;;0.00;0.00;;;9.60;77.20;;;;;;5064141;28;20087;-76
2021/09/22 03:38:39;;;;;;;0.00;0.00;;;9.70;77.20;;;;;;5048021;28;20032;-75
2021/09/22 03:41:06;;;;;;;0.00;0.00;;;9.60;77.00;;;;;;5073217;28;20104;-75
2021/09/22 03:43:33;;;;;;;0.00;0.00;;;9.60;77.00;;;;;;5048978;28;20029;-76
2021/09/22 03:46:01;;;;;;;0.00;0.00;;;9.60;77.10;;;;;;5051727;28;20480;-77
2021/09/22 03:48:28;;;;;;;0.00;0.00;;;9.60;77.20;;;;;;5052206;28;20021;-75
2021/09/22 03:50:54;;;;;;;0.00;0.00;;;9.60;77.20;;;;;;5052552;28;20027;-76
2021/09/22 03:53:21;;;;;;;0.00;0.00;;;9.60;77.10;;;;;;5065662;28;20029;-76
2021/09/22 03:55:47;;;;;;;0.00;0.00;;;9.60;77.00;;;;;;5065341;28;20023;-75
2021/09/22 03:58:15;;;;;;;0.00;0.00;;;9.60;77.00;;;;;;5067193;28;20461;-76
2021/09/22 04:00:45;;;;;;;0.00;0.00;;;9.60;77.00;;;;;;5071511;28;20025;-74
2021/09/22 04:03:13;;;;;;;0.00;0.00;;;9.60;77.10;;;;;;5068829;28;20021;-77
2021/09/22 04:05:43;;;;;;;0.00;0.00;;;9.70;77.20;;;;;;5052166;28;20060;-77
2021/09/22 04:08:09;;;;;;;0.00;0.00;;;9.70;77.10;;;;;;5066505;28;20024;-76
2021/09/22 04:10:35;;;;;;;0.00;0.00;;;9.70;77.00;;;;;;5050948;28;20054;-75
2021/09/22 04:13:01;;;;;;;0.00;0.00;;;9.70;77.00;;;;;;5068700;28;20051;-76
2021/09/22 04:15:26;;;;;;;0.00;0.00;;;9.80;76.90;;;;;;5065783;28;20025;-76
2021/09/22 04:17:52;;;;;;;0.00;0.00;;;9.80;76.70;;;;;;5067091;28;20025;-76
2021/09/22 04:20:19;;;;;;;0.00;0.00;;;9.80;76.40;;;;;;5049544;28;20025;-76
2021/09/22 04:22:45;;;;;;;0.00;0.00;;;9.80;76.40;;;;;;5065862;28;20151;-77
2021/09/22 04:25:11;;;;;;;0.00;0.00;;;9.80;76.30;;;;;;5065506;28;20488;-78
2021/09/22 04:27:38;;;;;;;0.00;0.00;;;9.80;76.30;;;;;;5065671;28;20028;-75
2021/09/22 04:30:06;;;;;;;0.00;0.00;;;9.80;76.30;;;;;;5065162;28;20076;-76
2021/09/22 04:32:32;;;;;;;0.00;0.00;;;9.80;76.30;;;;;;5068071;28;20028;-76
2021/09/22 04:34:58;;;;;;;0.00;0.00;;;9.80;76.30;;;;;;5064268;28;20526;-77
2021/09/22 04:37:24;;;;;;;0.00;0.00;;;9.80;76.30;;;;;;5049389;28;20472;-75
2021/09/22 04:39:52;;;;;;;0.00;0.00;;;9.80;76.10;;;;;;5066592;28;20032;-79
2021/09/22 04:42:18;;;;;;;0.00;0.00;;;9.80;76.10;;;;;;5060866;28;20102;-77
2021/09/22 04:44:44;;;;;;;0.00;0.00;;;9.80;76.10;;;;;;5049771;28;20028;-78
2021/09/22 04:47:14;;;;;;;0.00;0.00;;;9.80;76.20;;;;;;5066093;28;20028;-76
2021/09/22 04:49:40;;;;;;;0.00;0.00;;;9.80;76.30;;;;;;5066058;28;20036;-76
2021/09/22 04:52:06;;;;;;;0.00;0.00;;;9.80;76.30;;;;;;5068050;28;20025;-75
2021/09/22 04:54:32;;;;;;;0.00;0.00;;;9.90;76.50;;;;;;5065005;28;20028;-75
2021/09/22 04:56:58;;;;;;;0.00;0.00;;;9.90;76.30;;;;;;5057922;28;20029;-76
2021/09/22 04:59:24;;;;;;;0.00;0.00;;;10.00;76.10;;;;;;5054796;28;20480;-75
2021/09/22 05:01:49;;;;;;;0.00;0.00;;;10.00;75.90;;;;;;5054068;28;20100;-76
2021/09/22 05:04:15;;;;;;;0.00;0.00;;;10.00;75.80;;;;;;5054302;28;20032;-76
2021/09/22 05:06:41;;;;;;;0.00;0.00;;;10.00;75.90;;;;;;5054353;28;20461;-77
2021/09/22 05:09:07;;;;;;;0.00;0.00;;;10.00;75.80;;;;;;5036816;28;20377;-76
2021/09/22 05:11:32;;;;;;;0.00;0.00;;;10.10;75.80;;;;;;5054507;28;20052;-77
2021/09/22 05:13:58;;;;;;;0.00;0.00;;;10.10;75.60;;;;;;5054404;28;20078;-76
2021/09/22 05:16:26;;;;;;;0.00;0.00;;;10.20;75.40;;;;;;5036439;28;20064;-76
2021/09/22 05:18:54;;;;;;;0.00;0.00;;;10.30;75.20;;;;;;5053979;28;20021;-76
2021/09/22 05:21:33;;;;;;;0.00;0.00;;;10.40;74.80;;;;;;5054339;28;20017;-76
2021/09/22 05:23:58;;;;;;;0.00;0.00;;;10.50;74.40;;;;;;5065801;28;20050;-75
2021/09/22 05:26:24;;;;;;;0.00;0.00;;;10.60;74.20;;;;;;5073938;28;20020;-77
2021/09/22 05:28:51;;;;;;;0.00;0.00;;;10.60;73.90;;;;;;5065675;28;20025;-76
2021/09/22 05:31:17;;;;;;;0.05;0.00;;;10.70;73.70;;;;;;5073857;28;20025;-76
2021/09/22 05:33:48;;;;;;;0.00;0.00;;;10.70;73.50;;;;;;5074112;28;20124;-75
2021/09/22 05:36:22;;;;;;;0.00;0.00;;;10.80;73.40;;;;;;5074192;28;20436;-76
2021/09/22 05:38:49;;;;;;;0.00;0.00;;;10.90;73.20;;;;;;5055856;28;20031;-76
2021/09/22 05:41:18;;;;;;;0.00;0.00;;;10.90;72.90;;;;;;5073881;28;20103;-76
2021/09/22 05:43:44;;;;;;;0.00;0.00;;;11.00;72.60;;;;;;5073465;28;20029;-75
2021/09/22 05:46:10;;;;;;;0.00;0.00;;;11.00;72.40;;;;;;5073670;28;20025;-77
2021/09/22 05:48:36;;;;;;;0.00;0.00;;;11.10;72.30;;;;;;5055834;28;20027;-77
2021/09/22 05:51:02;;;;;;;0.00;0.00;;;11.10;71.90;;;;;;5055725;28;20025;-77
2021/09/22 05:53:27;;;;;;;0.00;0.00;;;11.20;72.10;;;;;;5055665;28;20488;-76
2021/09/22 05:55:53;;;;;;;0.00;0.00;;;11.20;71.80;;;;;;5073481;28;20032;-76
2021/09/22 05:58:20;;;;;;;0.00;0.00;;;11.30;71.60;;;;;;5073359;28;20032;-77
2021/09/22 06:00:47;;;;;;;0.00;0.00;;;11.20;71.10;;;;;;5073477;28;20469;-75
2021/09/22 06:03:13;;;;;;;0.00;0.00;;;11.20;71.20;;;;;;5073432;28;20032;-76
2021/09/22 06:05:39;;;;;;;0.00;0.00;;;11.30;71.50;;;;;;5073622;28;20068;-75
2021/09/22 06:08:06;;;;;;;0.00;0.00;;;11.40;71.30;;;;;;5073596;28;20020;-76
2021/09/22 06:10:33;;;;;;;0.00;0.00;;;11.40;70.90;;;;;;5073672;28;20032;-75
2021/09/22 06:12:59;;;;;;;0.00;0.00;;;11.40;70.80;;;;;;5073307;28;20472;-75
2021/09/22 06:15:25;;;;;;;0.00;0.00;;;11.40;70.90;;;;;;5073085;28;20479;-75
2021/09/22 06:17:51;;;;;;;0.00;0.00;;;11.50;70.70;;;;;;5072752;28;20060;-75
2021/09/22 06:20:18;;;;;;;0.00;0.00;;;11.40;70.30;;;;;;5074082;28;20023;-75
2021/09/22 06:22:43;;;;;;;0.00;0.00;;;11.40;70.30;;;;;;5073971;28;20478;-76
2021/09/22 06:25:14;;;;;;;0.00;0.00;;;11.40;70.40;;;;;;5040705;28;20059;-77
2021/09/22 06:27:41;;;;;;;0.00;0.00;;;11.40;70.40;;;;;;5042000;28;20478;-76
2021/09/22 06:30:22;;;;;;;0.00;0.00;;;11.40;70.50;;;;;;5044308;28;20461;-77
2021/09/22 06:32:53;;;;;;;0.00;0.00;;;11.40;70.60;;;;;;5042731;28;20543;-75
2021/09/22 06:35:19;;;;;;;0.00;0.00;;;11.50;70.50;;;;;;5039024;28;20029;-75
2021/09/22 06:37:48;;;;;;;0.00;0.00;;;11.40;70.20;;;;;;5041055;28;20024;-76
2021/09/22 06:40:18;;;;;;;0.00;0.00;;;11.40;70.10;;;;;;5040083;28;20071;-76
2021/09/22 06:42:44;;;;;;;0.00;0.00;;;11.40;70.10;;;;;;5034444;28;20112;-75
2021/09/22 06:45:11;;;;;;;0.00;0.00;;;11.40;70.10;;;;;;5033009;28;20033;-76
2021/09/22 06:47:36;;;;;;;0.00;0.00;;;11.40;70.20;;;;;;5034166;28;20064;-76
2021/09/22 06:50:03;;;;;;;0.00;0.00;;;11.50;70.00;;;;;;5015767;28;20078;-76
2021/09/22 06:52:30;;;;;;;0.00;0.00;;;11.50;69.60;;;;;;5033431;28;20040;-75
2021/09/22 06:54:57;;;;;;;0.00;0.00;;;11.50;69.40;;;;;;5032926;28;20030;-75
2021/09/22 06:57:23;;;;;;;0.00;0.00;;;11.50;69.40;;;;;;5033496;28;20021;-76
2021/09/22 06:59:49;;;;;;;0.00;0.00;;;11.50;69.20;;;;;;5033280;28;20026;-76
2021/09/22 07:02:15;;;;;;;0.00;0.00;;;11.60;69.20;;;;;;5033308;28;20122;-76
2021/09/22 07:04:41;;;;;;;0.00;0.00;;;11.60;69.20;;;;;;5033259;28;20481;-76
2021/09/22 07:07:07;;;;;;;0.00;0.00;;;11.70;69.30;;;;;;5033256;28;20022;-75
2021/09/22 07:09:33;;;;;;;0.00;0.00;;;11.70;69.20;;;;;;5033285;28;20504;-76
2021/09/22 07:11:58;;;;;;;0.00;0.00;;;11.80;69.00;;;;;;5033209;28;20032;-76
2021/09/22 07:14:24;;;;;;;0.00;0.00;;;11.90;68.70;;;;;;5033074;28;20033;-76
2021/09/22 07:16:53;;;;;;;0.00;0.00;;;11.90;68.70;;;;;;5032902;28;20380;-76
2021/09/22 07:19:19;;;;;;;0.00;0.00;;;12.00;68.50;;;;;;5032932;28;20083;-77
2021/09/22 07:21:44;;;;;;;0.00;0.00;;;12.20;68.30;;;;;;5015428;28;20037;-75
2021/09/22 07:24:10;;;;;;;0.00;0.00;;;12.30;68.00;;;;;;5033283;28;20073;-76
2021/09/22 07:26:36;;;;;;;0.00;0.00;;;12.50;67.50;;;;;;5035008;28;20108;-75
2021/09/22 07:29:02;;;;;;;0.00;0.00;;;12.60;67.10;;;;;;5036729;28;20025;-77
2021/09/22 07:31:28;;;;;;;0.00;0.00;;;12.70;66.60;;;;;;5036662;28;20030;-76
2021/09/22 07:33:54;;;;;;;0.00;0.00;;;12.70;66.10;;;;;;5036901;28;20516;-76
2021/09/22 07:36:20;;;;;;;0.00;0.00;;;12.80;66.10;;;;;;5036374;28;20024;-76
2021/09/22 07:38:46;;;;;;;0.00;0.00;;;13.00;65.90;;;;;;5035755;28;20071;-77
2021/09/22 07:41:13;;;;;;;0.00;0.00;;;13.10;65.80;;;;;;5037921;28;20033;-75
2021/09/22 07:43:40;;;;;;;0.00;0.00;;;13.30;65.60;;;;;;5056413;28;20040;-76
2021/09/22 07:46:06;;;;;;;0.00;0.00;;;13.50;64.80;;;;;;5048710;28;20018;-74
2021/09/22 07:48:34;;;;;;;0.00;0.00;;;13.50;64.40;;;;;;5018504;28;20115;-75
2021/09/22 07:51:00;;;;;;;0.00;0.00;;;13.40;64.50;;;;;;5035880;28;20033;-75
2021/09/22 07:53:27;;;;;;;0.00;0.00;;;13.40;64.60;;;;;;5056598;28;20090;-77
2021/09/22 07:55:53;;;;;;;0.00;0.00;;;13.40;64.20;;;;;;5038097;28;20029;-76
2021/09/22 07:58:20;;;;;;;0.00;0.00;;;13.40;64.10;;;;;;5054499;28;20025;-76
2021/09/22 08:00:47;;;;;;;0.00;0.00;;;13.40;64.10;;;;;;5038193;28;20032;-76
2021/09/22 08:03:13;;;;;;;0.00;0.00;;;13.40;63.90;;;;;;5046696;28;20033;-81
2021/09/22 08:05:40;;;;;;;0.00;0.00;;;13.30;63.60;;;;;;5047360;28;20074;-77
2021/09/22 08:08:09;;;;;;;0.00;0.00;;;13.30;63.60;;;;;;5076278;28;20024;-74
2021/09/22 08:10:37;;;;;;;0.00;0.00;;;13.30;63.50;;;;;;5062277;28;20052;-75
2021/09/22 08:13:03;;;;;;;0.00;0.00;;;13.30;63.40;;;;;;5035786;28;20390;-76
2021/09/22 08:15:30;;;;;;;0.00;0.00;;;13.30;63.50;;;;;;5035458;28;20428;-77
2021/09/22 08:17:55;;;;;;;0.00;0.00;;;13.20;63.30;;;;;;5026886;28;20115;-76
2021/09/22 08:20:21;;;;;;;0.00;0.00;;;13.00;63.40;;;;;;5055594;28;20117;-77
2021/09/22 08:22:48;;;;;;;0.00;0.00;;;12.90;63.60;;;;;;5044714;28;20050;-76
2021/09/22 08:25:15;;;;;;;0.00;0.00;;;12.90;64.00;;;;;;5063526;28;20078;-76
2021/09/22 08:27:42;;;;;;;0.00;0.00;;;12.90;64.10;;;;;;5067093;28;20456;-77
2021/09/22 08:30:09;;;;;;;0.08;0.00;;;12.90;63.90;;;;;;5055349;28;20052;-76
2021/09/22 08:32:35;;;;;;;0.00;0.00;;;12.70;63.90;;;;;;5055694;28;20041;-76
2021/09/22 08:35:01;;;;;;;0.00;0.00;;;12.70;64.30;;;;;;5037638;28;20036;-76
2021/09/22 08:37:27;;;;;;;0.00;0.00;;;12.60;64.50;;;;;;5037370;28;20027;-76
2021/09/22 08:39:53;;;;;;;0.00;0.00;;;12.60;64.70;;;;;;5055555;28;20025;-76
2021/09/22 08:42:19;;;;;;;0.00;0.00;;;12.50;64.70;;;;;;5050450;28;20049;-75
2021/09/22 08:44:45;;;;;;;0.00;0.00;;;12.50;65.00;;;;;;5037517;28;20029;-76
2021/09/22 08:47:11;;;;;;;0.00;0.00;;;12.60;64.90;;;;;;5068882;28;20040;-78
2021/09/22 08:49:37;;;;;;;0.00;0.00;;;12.70;64.90;;;;;;5055828;28;20025;-76
2021/09/22 08:52:03;;;;;;;0.00;0.00;;;12.80;64.60;;;;;;5055373;28;20025;-76
2021/09/22 08:54:29;;;;;;;0.00;0.00;;;12.90;64.10;;;;;;5040567;28;20065;-77
2021/09/22 08:57:00;;;;;;;0.00;0.00;;;13.00;64.10;;;;;;5053725;28;20055;-78
2021/09/22 08:59:27;;;;;;;0.00;0.00;;;13.10;63.70;;;;;;5033149;28;20017;-78
2021/09/22 09:02:08;;;;;;;0.00;0.00;;;13.20;63.70;;;;;;5056086;28;20384;-77
2021/09/22 09:04:34;;;;;;;0.00;0.00;;;13.30;63.30;;;;;;5046917;28;20029;-78
2021/09/22 09:07:00;;;;;;;0.00;0.00;;;13.40;63.10;;;;;;5054294;28;20039;-77
2021/09/22 09:09:32;;;;;;;0.00;0.00;;;13.60;62.60;;;;;;5052145;28;20025;-77
2021/09/22 09:12:00;;;;;;;0.10;0.00;;;13.80;62.00;;;;;;5064080;28;20165;-77
2021/09/22 09:14:28;;;;;;;0.00;0.00;;;14.10;61.80;;;;;;5074699;28;20411;-77
2021/09/22 09:16:58;;;;;;;0.00;0.00;;;14.20;61.10;;;;;;5069183;28;20047;-76
2021/09/22 09:19:25;;;;;;;0.00;0.00;;;14.20;60.60;;;;;;5053426;28;20032;-76
2021/09/22 09:21:58;;;;;;;0.00;0.00;;;14.20;60.90;;;;;;5074029;28;20449;-76
2021/09/22 09:24:37;;;;;;;0.00;0.00;;;14.30;60.30;;;;;;5073851;28;20135;-76
2021/09/22 09:27:07;;;;;;;0.00;0.00;;;14.40;60.00;;;;;;5055532;28;20024;-76
2021/09/22 09:29:33;;;;;;;0.00;0.00;;;14.50;60.00;;;;;;5056729;28;20420;-76
2021/09/22 09:32:10;;;;;;;0.00;0.00;;;14.60;59.60;;;;;;5055921;28;20060;-76
2021/09/22 09:34:36;;;;;;;0.00;0.00;;;14.70;59.20;;;;;;5056360;28;20431;-75
2021/09/22 09:37:02;;;;;;;0.22;0.00;;;14.70;59.10;;;;;;5073903;28;20032;-76
2021/09/22 09:39:29;;;;;;;0.00;0.00;;;14.70;58.90;;;;;;5074134;28;20024;-76
2021/09/22 09:41:58;;;;;;;0.00;0.00;;;14.60;59.10;;;;;;5056167;28;20025;-76
2021/09/22 09:44:27;;;;;;;0.00;0.00;;;14.70;59.10;;;;;;5073689;28;20051;-76
2021/09/22 09:46:55;;;;;;;0.00;0.00;;;14.80;59.00;;;;;;5073749;28;20464;-78
2021/09/22 09:49:24;;;;;;;0.00;0.00;;;14.90;58.50;;;;;;5055442;28;20099;-75
2021/09/22 09:51:51;;;;;;;0.00;0.00;;;14.90;58.00;;;;;;5052919;28;20115;-76
2021/09/22 09:54:26;;;;;;;0.00;0.00;;;14.90;58.00;;;;;;5051982;28;20128;-77
2021/09/22 09:57:07;;;;;;;0.00;0.00;;;15.00;57.90;;;;;;5053888;28;20051;-77
2021/09/22 09:59:43;;;;;;;0.00;0.00;;;15.20;58.80;;;;;;5051415;28;20055;-76
2021/09/22 10:02:24;;;;;;;0.00;0.00;;;15.40;57.60;;;;;;5059216;28;20039;-77
2021/09/22 10:04:50;;;;;;;0.00;0.00;;;15.30;56.90;;;;;;5014946;28;20056;-75
2021/09/22 10:07:17;;;;;;;0.00;0.00;;;15.10;56.90;;;;;;5017129;28;20028;-77
2021/09/22 10:09:43;;;;;;;0.00;0.00;;;14.80;57.20;;;;;;5033901;28;20027;-77
2021/09/22 10:12:10;;;;;;;0.00;0.00;;;14.50;57.50;;;;;;5033665;28;20022;-76
2021/09/22 10:14:36;;;;;;;0.00;0.00;;;14.40;58.20;;;;;;5016052;28;20056;-75
2021/09/22 10:17:03;;;;;;;0.00;0.00;;;14.40;58.50;;;;;;5033475;28;20021;-76
2021/09/22 10:19:30;;;;;;;0.00;0.00;;;14.40;58.30;;;;;;5016082;28;20128;-76
2021/09/22 10:21:57;;;;;;;0.00;0.00;;;14.40;58.50;;;;;;5050603;28;20384;-78
2021/09/22 10:24:24;;;;;;;0.00;0.00;;;14.30;58.60;;;;;;5053920;28;20044;-76
2021/09/22 10:26:55;;;;;;;0.00;0.00;;;14.50;58.80;;;;;;5054358;28;20029;-76
2021/09/22 10:29:24;;;;;;;0.00;0.00;;;14.70;58.40;;;;;;5049762;28;20036;-79
2021/09/22 10:31:51;;;;;;;0.00;0.00;;;14.90;57.90;;;;;;5047561;28;20090;-78
2021/09/22 10:34:30;;;;;;;0.00;0.00;;;15.00;57.70;;;;;;5047553;28;20077;-78
2021/09/22 10:39:36;;;;;;;0.00;0.00;;;14.80;57.90;;;;;;5054342;28;20064;-77
2021/09/22 10:42:26;;;;;;;0.00;0.00;;;14.60;57.20;;;;;;5066776;28;20377;-76
2021/09/22 10:45:15;;;;;;;0.00;0.00;;;14.30;57.60;;;;;;5072847;28;20495;-76
2021/09/22 10:47:42;;;;;;;0.00;0.00;;;14.10;58.10;;;;;;5054095;28;20032;-77
2021/09/22 10:50:12;;;;;;;0.00;0.00;;;13.90;58.50;;;;;;5053054;28;20017;-76
2021/09/22 10:52:43;;;;;;;0.00;0.00;;;13.80;58.90;;;;;;5052651;28;20098;-77
2021/09/22 10:55:13;;;;;;;0.00;0.00;;;13.60;58.90;;;;;;5052349;28;20465;-74
2021/09/22 10:57:41;;;;;;;0.00;0.00;;;13.40;59.30;;;;;;5053170;28;20381;-77
2021/09/22 11:00:13;;;;;;;0.00;0.00;;;13.30;59.60;;;;;;5053803;28;20021;-77
2021/09/22 11:02:53;;;;;;;0.00;0.00;;;13.10;59.70;;;;;;5056965;28;20024;-76
2021/09/22 11:05:30;;;;;;;0.00;0.00;;;12.90;60.20;;;;;;5052405;28;20033;-75
2021/09/22 11:08:00;;;;;;;0.00;0.00;;;12.90;60.80;;;;;;5055728;28;20462;-77
2021/09/22 11:10:35;;;;;;;0.00;0.00;;;12.90;61.00;;;;;;5063109;28;20032;-75
2021/09/22 11:13:23;;;;;;;0.00;0.00;;;13.00;61.00;;;;;;5055351;28;20029;-77
2021/09/22 11:15:54;;;;;;;0.00;0.00;;;13.20;60.90;;;;;;5035108;28;20034;-75
2021/09/22 11:18:21;;;;;;;0.00;0.00;;;13.40;60.70;;;;;;5036228;28;20504;-76
2021/09/22 11:21:05;;;;;;;0.00;0.00;;;13.60;60.50;;;;;;5057280;28;20031;-76
2021/09/22 11:23:31;;;;;;;0.00;0.00;;;14.30;60.30;;;;;;5076339;28;20049;-77
2021/09/22 11:26:08;;;;;;;0.00;0.00;;;14.80;59.50;;;;;;5058643;28;20025;-75
2021/09/22 11:28:34;;;;;;;0.00;0.00;;;15.20;58.20;;;;;;5075163;28;20021;-76
2021/09/22 11:31:00;;;;;;;0.00;0.00;;;15.50;57.30;;;;;;5058155;28;20107;-76
2021/09/22 11:33:27;;;;;;;0.00;0.00;;;15.60;56.60;;;;;;5076422;28;20108;-77
2021/09/22 11:35:53;;;;;;;0.00;0.00;;;15.40;55.90;;;;;;5076256;28;20098;-77
2021/09/22 11:38:19;;;;;;;0.00;0.00;;;15.10;55.90;;;;;;5075421;28;20024;-77
2021/09/22 11:40:47;;;;;;;0.00;0.00;;;14.80;56.10;;;;;;5074886;28;20024;-76
2021/09/22 11:43:18;;;;;;;0.00;0.00;;;14.60;56.50;;;;;;5056068;28;20037;-77
2021/09/22 11:45:57;;;;;;;0.00;0.00;;;14.40;56.90;;;;;;5055533;28;20048;-76
2021/09/22 11:48:28;;;;;;;0.00;0.00;;;14.20;57.20;;;;;;5056046;28;20032;-76
2021/09/22 11:50:55;;;;;;;0.00;0.00;;;13.90;57.60;;;;;;5056068;28;20029;-78
2021/09/22 11:53:23;;;;;;;0.00;0.00;;;13.80;58.10;;;;;;5055566;28;20067;-76
2021/09/22 11:55:50;;;;;;;0.00;0.00;;;13.60;58.30;;;;;;5055513;28;20155;-77
2021/09/22 11:58:18;;;;;;;0.00;0.00;;;13.40;58.80;;;;;;5055883;28;20477;-77
2021/09/22 12:00:49;;;;;;;0.00;0.00;;;13.40;59.30;;;;;;5054714;28;20029;-77
2021/09/22 12:03:15;;;;;;;0.00;0.00;;;13.40;59.40;;;;;;5055493;28;20033;-76
2021/09/22 12:05:43;;;;;;;0.00;0.00;;;13.30;59.40;;;;;;5055756;28;20104;-77
2021/09/22 12:08:10;;;;;;;0.00;0.00;;;13.20;59.50;;;;;;5055993;28;20025;-78
2021/09/22 12:10:44;;;;;;;0.00;0.00;;;13.10;59.70;;;;;;5062809;28;20087;-76
2021/09/22 12:13:10;;;;;;;0.00;0.00;;;13.00;60.00;;;;;;5054949;28;20039;-77
2021/09/22 12:15:36;;;;;;;0.00;0.00;;;13.00;60.20;;;;;;5054570;28;20108;-77
2021/09/22 12:18:02;;;;;;;0.00;0.00;;;13.10;60.40;;;;;;5055896;28;20057;-77
2021/09/22 12:20:30;;;;;;;0.00;0.00;;;13.20;60.40;;;;;;5055602;28;20135;-76
2021/09/22 12:23:19;;;;;;;0.00;0.00;;;13.10;60.30;;;;;;5073005;28;20048;-77
2021/09/22 12:25:48;;;;;;;0.00;0.00;;;13.10;60.40;;;;;;5056736;28;20036;-76
2021/09/22 12:28:21;;;;;;;0.00;0.00;;;13.10;60.40;;;;;;5057479;28;20031;-75
2021/09/22 12:30:47;;;;;;;0.00;0.00;;;13.10;60.60;;;;;;5075532;28;20071;-76
2021/09/22 12:33:18;;;;;;;0.00;0.00;;;13.10;60.80;;;;;;5075235;28;20060;-78
2021/09/22 12:35:44;;;;;;;0.00;0.00;;;13.10;60.80;;;;;;5075423;28;20031;-77
2021/09/22 12:38:15;;;;;;;0.00;0.00;;;13.20;61.70;;;;;;5048373;28;20073;-78
2021/09/22 12:40:59;;;;;;;0.00;0.00;;;13.20;60.90;;;;;;5056502;28;20029;-79
2021/09/22 12:43:30;;;;;;;0.00;0.00;;;13.10;60.90;;;;;;5051970;28;20080;-78
2021/09/22 12:46:15;;;;;;;0.10;0.10;;;13.10;61.10;;;;;;5046760;28;20031;-79
2021/09/22 12:48:41;;;;;;;;;;;13.10;61.40;;;;;;5034190;28;20112;-77
2021/09/22 12:51:18;;;;;;;0.00;0.00;;;13.10;61.40;;;;;;5033799;28;19996;-82
2021/09/22 12:53:45;;;;;;;0.00;0.00;;;13.10;61.30;;;;;;5035178;28;20033;-79
2021/09/22 12:56:13;;;;;;;0.00;0.00;;;13.00;61.30;;;;;;5035412;28;20026;-78